Time,TemperatureF,DewpointF,PressureIn,WindDirection,WindDirectionDegrees,WindSpeedMPH,WindSpeedGustMPH,Humidity,HourlyPrecipIn,Conditions,Clouds,dailyrainin,SoftwareType,DateUTC
2013-03-04 01:00:00,28.0,-99.9,-100.00,West,280,9.0,26.0,-999,0.03,,,-99.99,,2013-03-04 08:00:00,
2013-03-04 01:42:00,28.0,-99.9,-100.00,West,280,9.0,26.0,-999,0.03,,,-99.99,,2013-03-04 08:42:00,
2013-03-04 01:53:00,28.0,-99.9,-100.00,West,280,9.0,26.0,-999,0.03,,,-99.99,,2013-03-04 08:53:00,
2013-03-04 02:00:00,27.0,-99.9,-100.00,West,281,10.0,23.0,-999,0.04,,,-99.99,,2013-03-04 09:00:00,
2013-03-04 02:32:00,27.0,-99.9,-100.00,West,281,10.0,23.0,-999,0.04,,,-99.99,,2013-03-04 09:32:00,
2013-03-04 02:42:00,27.0,-99.9,-100.00,West,281,10.0,23.0,-999,0.04,,,-99.99,,2013-03-04 09:42:00,
2013-03-04 02:52:00,27.0,-99.9,-100.00,West,281,10.0,23.0,-999,0.04,,,-99.99,,2013-03-04 09:52:00,
2013-03-04 03:00:00,26.0,-99.9,-100.00,WNW,282,10.0,30.0,-999,0.05,,,-99.99,,2013-03-04 10:00:00,
2013-03-04 03:42:00,26.0,-99.9,-100.00,WNW,282,10.0,30.0,-999,0.05,,,-99.99,,2013-03-04 10:42:00,
2013-03-04 03:52:00,26.0,-99.9,-100.00,WNW,282,10.0,30.0,-999,0.05,,,-99.99,,2013-03-04 10:52:00,
2013-03-04 04:00:00,24.0,-99.9,-100.00,West,281,8.0,20.0,-999,0.02,,,-99.99,,2013-03-04 11:00:00,
2013-03-04 04:32:00,24.0,-99.9,-100.00,West,281,8.0,20.0,-999,0.02,,,-99.99,,2013-03-04 11:32:00,
2013-03-04 04:42:00,24.0,-99.9,-100.00,West,281,8.0,20.0,-999,0.02,,,-99.99,,2013-03-04 11:42:00,
2013-03-04 04:52:00,24.0,-99.9,-100.00,West,281,8.0,20.0,-999,0.02,,,-99.99,,2013-03-04 11:52:00,
2013-03-04 05:00:00,21.0,-99.9,-100.00,WNW,285,8.0,22.0,-999,0.01,,,-99.99,,2013-03-04 12:00:00,
2013-03-04 05:43:00,21.0,-99.9,-100.00,WNW,285,8.0,22.0,-999,0.01,,,-99.99,,2013-03-04 12:43:00,
2013-03-04 05:53:00,21.0,-99.9,-100.00,WNW,285,8.0,22.0,-999,0.01,,,-99.99,,2013-03-04 12:53:00,
2013-03-04 06:00:00,21.0,-99.9,-100.00,WNW,296,10.0,23.0,-999,0.00,,,-99.99,,2013-03-04 13:00:00,
2013-03-04 06:42:00,21.0,-99.9,-100.00,WNW,296,10.0,23.0,-999,0.00,,,-99.99,,2013-03-04 13:42:00,
2013-03-04 06:52:00,21.0,-99.9,-100.00,WNW,296,10.0,23.0,-999,0.00,,,-99.99,,2013-03-04 13:52:00,
2013-03-04 07:00:00,20.0,-99.9,-100.00,WNW,295,11.0,25.0,-999,0.00,,,-99.99,,2013-03-04 14:00:00,
2013-03-04 07:42:00,20.0,-99.9,-100.00,WNW,295,11.0,25.0,-999,0.00,,,-99.99,,2013-03-04 14:42:00,
2013-03-04 07:52:00,20.0,-99.9,-100.00,WNW,295,11.0,25.0,-999,0.00,,,-99.99,,2013-03-04 14:52:00,
2013-03-04 08:00:00,17.0,-99.9,-100.00,WNW,288,11.0,29.0,-999,0.00,,,-99.99,,2013-03-04 15:00:00,
2013-03-04 08:42:00,17.0,-99.9,-100.00,WNW,288,11.0,29.0,-999,0.00,,,-99.99,,2013-03-04 15:42:00,
2013-03-04 08:52:00,17.0,-99.9,-100.00,WNW,288,11.0,29.0,-999,0.00,,,-99.99,,2013-03-04 15:52:00,
2013-03-04 09:00:00,16.0,-99.9,-100.00,WNW,282,10.0,26.0,-999,0.00,,,-99.99,,2013-03-04 16:00:00,
2013-03-04 09:42:00,16.0,-99.9,-100.00,WNW,282,10.0,26.0,-999,0.00,,,-99.99,,2013-03-04 16:42:00,
2013-03-04 09:52:00,16.0,-99.9,-100.00,WNW,282,10.0,26.0,-999,0.00,,,-99.99,,2013-03-04 16:52:00,
2013-03-04 10:00:00,19.0,-99.9,-100.00,West,281,8.0,21.0,-999,0.00,,,-99.99,,2013-03-04 17:00:00,
2013-03-04 10:42:00,19.0,-99.9,-100.00,West,281,8.0,21.0,-999,0.00,,,-99.99,,2013-03-04 17:42:00,
2013-03-04 10:52:00,19.0,-99.9,-100.00,West,281,8.0,21.0,-999,0.00,,,-99.99,,2013-03-04 17:52:00,
2013-03-04 11:00:00,20.0,-99.9,-100.00,West,281,7.0,22.0,-999,0.00,,,-99.99,,2013-03-04 18:00:00,
2013-03-04 11:43:00,20.0,-99.9,-100.00,West,281,7.0,22.0,-999,0.00,,,-99.99,,2013-03-04 18:43:00,
2013-03-04 11:53:00,20.0,-99.9,-100.00,West,281,7.0,22.0,-999,0.00,,,-99.99,,2013-03-04 18:53:00,
2013-03-04 12:00:00,22.0,-99.9,-100.00,West,273,6.0,14.0,-999,0.00,,,-99.99,,2013-03-04 19:00:00,
2013-03-04 12:42:00,22.0,-99.9,-100.00,West,273,6.0,14.0,-999,0.00,,,-99.99,,2013-03-04 19:42:00,
2013-03-04 12:52:00,22.0,-99.9,-100.00,West,273,6.0,14.0,-999,0.00,,,-99.99,,2013-03-04 19:52:00,
2013-03-04 13:00:00,25.0,-99.9,-100.00,West,279,6.0,15.0,-999,0.00,,,-99.99,,2013-03-04 20:00:00,
2013-03-04 13:33:00,25.0,-99.9,-100.00,West,279,6.0,15.0,-999,0.00,,,-99.99,,2013-03-04 20:33:00,
2013-03-04 13:42:00,25.0,-99.9,-100.00,West,279,6.0,15.0,-999,0.00,,,-99.99,,2013-03-04 20:42:00,
2013-03-04 13:53:00,25.0,-99.9,-100.00,West,279,6.0,15.0,-999,0.00,,,-99.99,,2013-03-04 20:53:00,
2013-03-04 14:00:00,27.0,-99.9,-100.00,West,262,5.0,11.0,-999,0.00,,,-99.99,,2013-03-04 21:00:00,
2013-03-04 14:43:00,27.0,-99.9,-100.00,West,262,5.0,11.0,-999,0.00,,,-99.99,,2013-03-04 21:43:00,
2013-03-04 14:53:00,27.0,-99.9,-100.00,West,262,5.0,11.0,-999,0.00,,,-99.99,,2013-03-04 21:53:00,
2013-03-04 15:00:00,27.0,-99.9,-100.00,West,275,3.0,9.0,-999,0.00,,,-99.99,,2013-03-04 22:00:00,
2013-03-04 15:43:00,27.0,-99.9,-100.00,West,275,3.0,9.0,-999,0.00,,,-99.99,,2013-03-04 22:43:00,
2013-03-04 15:52:00,27.0,-99.9,-100.00,West,275,3.0,9.0,-999,0.00,,,-99.99,,2013-03-04 22:52:00,
2013-03-04 16:00:00,25.0,-99.9,-100.00,West,281,4.0,10.0,-999,0.00,,,-99.99,,2013-03-04 23:00:00,
2013-03-04 16:42:00,25.0,-99.9,-100.00,West,281,4.0,10.0,-999,0.00,,,-99.99,,2013-03-04 23:42:00,
2013-03-04 16:53:00,25.0,-99.9,-100.00,West,281,4.0,10.0,-999,0.00,,,-99.99,,2013-03-04 23:53:00,
2013-03-04 17:00:00,23.0,-99.9,-100.00,WNW,292,4.0,7.0,-999,0.00,,,-99.99,,2013-03-05 00:00:00,
2013-03-04 17:42:00,23.0,-99.9,-100.00,WNW,292,4.0,7.0,-999,0.00,,,-99.99,,2013-03-05 00:42:00,
2013-03-04 17:52:00,23.0,-99.9,-100.00,WNW,292,4.0,7.0,-999,0.00,,,-99.99,,2013-03-05 00:52:00,
2013-03-04 19:00:00,11.0,-99.9,-100.00,SE,133,5.0,10.0,-999,0.00,,,-99.99,,2013-03-05 02:00:00,
2013-03-04 19:42:00,11.0,-99.9,-100.00,SE,133,5.0,10.0,-999,0.00,,,-99.99,,2013-03-05 02:42:00,
2013-03-04 19:53:00,11.0,-99.9,-100.00,SE,133,5.0,10.0,-999,0.00,,,-99.99,,2013-03-05 02:53:00,
2013-03-04 20:00:00,9.0,-99.9,-100.00,East,92,4.0,7.0,-999,0.00,,,-99.99,,2013-03-05 03:00:00,
2013-03-04 20:42:00,9.0,-99.9,-100.00,East,92,4.0,7.0,-999,0.00,,,-99.99,,2013-03-05 03:42:00,
2013-03-04 20:53:00,9.0,-99.9,-100.00,East,92,4.0,7.0,-999,0.00,,,-99.99,,2013-03-05 03:53:00,
2013-03-04 21:00:00,8.0,-99.9,-100.00,East,92,4.0,8.0,-999,0.00,,,-99.99,,2013-03-05 04:00:00,
2013-03-04 21:42:00,8.0,-99.9,-100.00,East,92,4.0,8.0,-999,0.00,,,-99.99,,2013-03-05 04:42:00,
2013-03-04 21:52:00,8.0,-99.9,-100.00,East,92,4.0,8.0,-999,0.00,,,-99.99,,2013-03-05 04:52:00,
2013-03-04 22:00:00,7.0,-99.9,-100.00,East,91,5.0,9.0,-999,0.00,,,-99.99,,2013-03-05 05:00:00,
2013-03-04 22:42:00,7.0,-99.9,-100.00,East,91,5.0,9.0,-999,0.00,,,-99.99,,2013-03-05 05:42:00,
2013-03-04 22:52:00,7.0,-99.9,-100.00,East,91,5.0,9.0,-999,0.00,,,-99.99,,2013-03-05 05:52:00,
2013-03-04 23:00:00,6.0,-99.9,-100.00,East,87,5.0,8.0,-999,0.00,,,-99.99,,2013-03-05 06:00:00,
2013-03-04 23:32:00,6.0,-99.9,-100.00,East,87,5.0,8.0,-999,0.00,,,-99.99,,2013-03-05 06:32:00,
2013-03-04 23:42:00,6.0,-99.9,-100.00,East,87,5.0,8.0,-999,0.00,,,-99.99,,2013-03-05 06:42:00,
2013-03-04 23:52:00,6.0,-99.9,-100.00,East,87,5.0,8.0,-999,0.00,,,-99.99,,2013-03-05 06:52:00,